Time;durP1;ratioP1;P1;durP2;ratioP2;P2;SDS_P1;SDS_P2;PMS_P1;PMS_P2;Temp;Humidity;BMP_temperature;BMP_pressure;BME280_temperature;BME280_humidity;BME280_pressure;Samples;Min_cycle;Max_cycle;Signal;HPM_P1;HPM_P2
2022/01/30 00:01:43;;;;;;;;;;;;;;;6.22;100.00;102666.56;5091907;28;19920;-82
2022/01/30 00:04:08;;;;;;;;;;;;;;;6.24;100.00;102667.59;5093189;28;19920;-83
2022/01/30 00:06:34;;;;;;;;;;;;;;;6.24;100.00;102664.97;5098161;28;19923;-82
2022/01/30 00:08:59;;;;;;;;;;;;;;;6.23;100.00;102670.97;5115653;28;19923;-82
2022/01/30 00:11:29;;;;;;;;;;;;;;;6.09;100.00;102669.84;5097388;28;19934;-82
2022/01/30 00:13:59;;;;;;;;;;;;;;;6.08;100.00;102686.34;5096948;28;20006;-83
2022/01/30 00:16:29;;;;;;;;;;;;;;;6.04;100.00;102687.75;5118216;28;19927;-82
2022/01/30 00:19:14;;;;;;;;;;;;;;;6.01;100.00;102686.59;5100993;28;20010;-82
2022/01/30 00:21:46;;;;;;;;;;;;;;;5.97;100.00;102682.81;5099733;28;19920;-82
2022/01/30 00:24:22;;;;;;;;;;;;;;;5.99;100.00;102690.78;5079508;28;20349;-83
2022/01/30 00:26:48;;;;;;;;;;;;;;;5.96;100.00;102693.13;5103028;28;19920;-83
2022/01/30 00:29:13;;;;;;;;;;;;;;;5.94;100.00;102699.13;5100854;28;19919;-82
2022/01/30 00:31:39;;;;;;;;;;;;;;;5.84;100.00;102695.59;5086545;28;19996;-82
2022/01/30 00:34:04;;;;;;;;;;;;;;;5.81;100.00;102711.97;5101760;28;19985;-84
2022/01/30 00:36:31;;;;;;;;;;;;;;;5.78;100.00;102706.47;5102784;28;19923;-82
2022/01/30 00:38:56;;;;;;;;;;;;;;;5.83;100.00;102705.16;5103245;28;19920;-82
2022/01/30 00:41:21;;;;;;;;;;;;;;;5.87;100.00;102717.72;5092125;28;19927;-83
2022/01/30 00:43:47;;;;;;;;;;;;;;;5.87;100.00;102714.16;5083445;28;20007;-82
2022/01/30 00:46:13;;;;;;;;;;;;;;;5.83;100.00;102715.59;5100485;28;19920;-82
2022/01/30 00:48:38;;;;;;;;;;;;;;;5.80;100.00;102717.06;5099660;28;19954;-82
2022/01/30 00:51:03;;;;;;;;;;;;;;;5.75;100.00;102716.66;5120170;28;19924;-83
2022/01/30 00:53:31;;;;;;;;;;;;;;;5.73;100.00;102721.75;5099849;28;19920;-82
2022/01/30 00:55:57;;;;;;;;;;;;;;;5.74;100.00;102720.06;5099997;28;19986;-82
2022/01/30 00:58:22;;;;;;;;;;;;;;;5.69;100.00;102714.44;5088094;28;19926;-83
2022/01/30 01:00:47;;;;;;;;;;;;;;;5.63;100.00;102710.38;5115951;28;20002;-82
2022/01/30 01:03:17;;;;;;;;;;;;;;;5.65;100.00;102708.81;5081793;28;19924;-82
2022/01/30 01:05:42;;;;;;;;;;;;;;;5.69;100.00;102711.81;5096718;28;19920;-82
2022/01/30 01:08:27;;;;;;;;;;;;;;;5.68;100.00;102715.19;5095436;28;19926;-82
2022/01/30 01:10:59;;;;;;;;;;;;;;;5.61;100.00;102712.88;5082945;28;19920;-82
2022/01/30 01:24:00;;;;;;;;;;;;;;;5.60;100.00;102712.75;5099275;28;19920;-82
2022/01/30 01:26:26;;;;;;;;;;;;;;;5.61;100.00;102706.69;5100237;28;19920;-82
2022/01/30 01:28:52;;;;;;;;;;;;;;;5.60;100.00;102720.56;5095519;28;19920;-82
2022/01/30 01:31:18;;;;;;;;;;;;;;;5.55;100.00;102718.47;5097642;28;19924;-81
2022/01/30 01:36:44;;;;;;;;;;;;;;;5.48;100.00;102731.78;5098500;28;20387;-81
2022/01/30 01:39:09;;;;;;;;;;;;;;;5.52;100.00;102720.81;5098758;28;19920;-82
2022/01/30 01:41:36;;;;;;;;;;;;;;;5.54;100.00;102734.03;5117404;28;20003;-81
2022/01/30 01:44:03;;;;;;;;;;;;;;;5.57;100.00;102734.28;5093913;28;19977;-81
2022/01/30 01:46:34;;;;;;;;;;;;;;;5.58;100.00;102734.41;5096931;28;19927;-82
2022/01/30 01:48:59;;;;;;;;;;;;;;;5.61;100.00;102739.00;5083066;28;20817;-82
2022/01/30 01:51:25;;;;;;;;;;;;;;;5.59;100.00;102735.31;5115327;28;19920;-82
2022/01/30 01:53:53;;;;;;;;;;;;;;;5.57;100.00;102742.13;5094265;28;19916;-82
2022/01/30 01:56:19;;;;;;;;;;;;;;;5.56;100.00;102740.28;5098497;28;19919;-82
2022/01/30 01:58:44;;;;;;;;;;;;;;;5.62;100.00;102746.03;5096193;28;19942;-80
2022/01/30 02:01:10;;;;;;;;;;;;;;;5.57;100.00;102744.75;5095406;28;20371;-82
2022/01/30 02:03:37;;;;;;;;;;;;;;;5.48;100.00;102746.56;5089329;28;19923;-82
2022/01/30 02:06:04;;;;;;;;;;;;;;;5.48;100.00;102746.56;5098798;28;19923;-81
2022/01/30 02:11:03;;;;;;;;;;;;;;;5.54;100.00;102744.47;5116816;28;19920;-82
2022/01/30 02:27:15;;;;;;;;;;;;;;;5.89;100.00;102742.28;5117092;28;19927;-82
2022/01/30 02:29:40;;;;;;;;;;;;;;;5.80;100.00;102745.81;5093438;28;19947;-82
2022/01/30 02:32:11;;;;;;;;;;;;;;;5.67;100.00;102744.75;5098413;28;20344;-82
2022/01/30 02:34:37;;;;;;;;;;;;;;;5.59;100.00;102743.16;5097014;28;19920;-81
2022/01/30 02:37:03;;;;;;;;;;;;;;;5.48;100.00;102746.56;5098613;28;19926;-81
2022/01/30 02:39:28;;;;;;;;;;;;;;;5.41;100.00;102745.13;5080924;28;19920;-81
2022/01/30 02:41:54;;;;;;;;;;;;;;;5.36;100.00;102756.84;5092720;28;19920;-81
2022/01/30 02:46:48;;;;;;;;;;;;;;;5.49;100.00;102754.53;5116617;28;20259;-81
2022/01/30 02:51:59;;;;;;;;;;;;;;;5.41;100.00;102758.19;5116127;28;19946;-81
2022/01/30 02:54:25;;;;;;;;;;;;;;;5.24;100.00;102754.09;5096239;28;20233;-81
2022/01/30 02:56:50;;;;;;;;;;;;;;;5.18;100.00;102745.72;5092317;28;19965;-81
2022/01/30 02:59:17;;;;;;;;;;;;;;;5.09;100.00;102753.63;5091127;28;20272;-80
2022/01/30 03:01:49;;;;;;;;;;;;;;;5.02;100.00;102741.75;5094571;28;20413;-81
2022/01/30 03:04:14;;;;;;;;;;;;;;;4.93;100.00;102748.75;5090466;28;19950;-81
2022/01/30 03:06:41;;;;;;;;;;;;;;;4.94;100.00;102734.94;5098012;28;20571;-81
2022/01/30 03:09:08;;;;;;;;;;;;;;;5.07;100.00;102738.63;5097396;28;19919;-81
2022/01/30 03:11:34;;;;;;;;;;;;;;;5.21;100.00;102741.66;5097541;28;19924;-81
2022/01/30 03:14:02;;;;;;;;;;;;;;;5.32;100.00;102745.22;5098156;28;19919;-83
2022/01/30 03:16:27;;;;;;;;;;;;;;;5.44;100.00;102744.44;5097856;28;19927;-81
2022/01/30 03:18:52;;;;;;;;;;;;;;;5.45;100.00;102746.28;5097758;28;20301;-83
2022/01/30 03:21:18;;;;;;;;;;;;;;;5.41;100.00;102755.56;5098070;28;20324;-81
2022/01/30 03:23:43;;;;;;;;;;;;;;;5.38;100.00;102769.25;5097483;28;19973;-81
2022/01/30 03:26:09;;;;;;;;;;;;;;;5.30;100.00;102761.53;5097904;28;19920;-82
2022/01/30 03:28:35;;;;;;;;;;;;;;;5.32;100.00;102759.97;5097551;28;19923;-82
2022/01/30 03:31:04;;;;;;;;;;;;;;;5.28;100.00;102773.53;5098136;28;19927;-82
2022/01/30 03:33:39;;;;;;;;;;;;;;;5.31;100.00;102769.50;5097353;28;19988;-81
2022/01/30 03:36:05;;;;;;;;;;;;;;;5.28;100.00;102770.94;5098109;28;19949;-81
2022/01/30 03:38:30;;;;;;;;;;;;;;;5.26;100.00;102773.41;5115253;28;19920;-81
2022/01/30 03:40:55;;;;;;;;;;;;;;;5.34;100.00;102772.38;5097626;28;19999;-81
2022/01/30 03:43:22;;;;;;;;;;;;;;;5.46;100.00;102788.22;5097483;28;19928;-82
2022/01/30 03:45:47;;;;;;;;;;;;;;;5.58;100.00;102796.25;5097737;28;20018;-82
2022/01/30 03:48:14;;;;;;;;;;;;;;;5.61;100.00;102786.06;5097519;28;19983;-82
2022/01/30 03:50:39;;;;;;;;;;;;;;;5.60;100.00;102791.13;5116993;28;20010;-81
2022/01/30 03:53:13;;;;;;;;;;;;;;;5.57;100.00;102800.53;5101212;28;20333;-81
2022/01/30 03:55:41;;;;;;;;;;;;;;;5.43;100.00;102790.56;5100627;28;20348;-80
2022/01/30 03:58:07;;;;;;;;;;;;;;;5.38;100.00;102786.66;5101131;28;19924;-81
2022/01/30 04:00:33;;;;;;;;;;;;;;;5.34;100.00;102790.66;5085118;28;19920;-81
2022/01/30 04:03:00;;;;;;;;;;;;;;;5.28;100.00;102807.50;5080570;28;19965;-81
2022/01/30 04:05:25;;;;;;;;;;;;;;;5.23;100.00;102812.31;5090945;28;20304;-82
2022/01/30 04:07:51;;;;;;;;;;;;;;;5.18;100.00;102811.91;5092525;28;19977;-83
2022/01/30 04:10:16;;;;;;;;;;;;;;;5.15;100.00;102809.03;5098864;28;20360;-82
2022/01/30 04:12:42;;;;;;;;;;;;;;;5.26;100.00;102815.19;5098404;28;20007;-82
2022/01/30 04:15:07;;;;;;;;;;;;;;;5.32;100.00;102813.13;5100085;28;19924;-81
2022/01/30 04:17:33;;;;;;;;;;;;;;;5.34;100.00;102819.41;5100035;28;19923;-82
2022/01/30 04:19:58;;;;;;;;;;;;;;;5.44;100.00;102810.69;5099718;28;19926;-82
2022/01/30 04:22:25;;;;;;;;;;;;;;;5.49;100.00;102809.41;5119076;28;20514;-82
2022/01/30 04:24:51;;;;;;;;;;;;;;;5.47;100.00;102807.41;5100456;28;19920;-83
2022/01/30 04:27:16;;;;;;;;;;;;;;;5.46;100.00;102810.84;5100015;28;19926;-82
2022/01/30 04:29:41;;;;;;;;;;;;;;;5.40;100.00;102817.34;5101249;28;19919;-82
2022/01/30 04:32:08;;;;;;;;;;;;;;;5.42;100.00;102811.34;5098294;28;19919;-82
2022/01/30 04:34:33;;;;;;;;;;;;;;;5.33;100.00;102816.66;5096936;28;19920;-82
2022/01/30 04:53:35;;;;;;;;;;;;;;;5.06;100.00;102834.31;5117873;28;19981;-81
2022/01/30 05:07:29;;;;;;;;;;;;;;;4.85;100.00;102849.88;5118013;28;20385;-83
2022/01/30 05:09:28;;;;;;;;;;;;;;;4.81;100.00;102858.19;5099586;28;20003;-82
2022/01/30 05:11:55;;;;;;;;;;;;;;;4.94;100.00;102861.91;5099877;28;20587;-82
2022/01/30 05:14:23;;;;;;;;;;;;;;;4.87;100.00;102868.28;5100736;28;19927;-81
2022/01/30 05:16:48;;;;;;;;;;;;;;;4.79;100.00;102864.97;5099398;28;20000;-81
2022/01/30 05:19:14;;;;;;;;;;;;;;;4.84;100.00;102868.91;5099248;28;20340;-83
2022/01/30 05:21:40;;;;;;;;;;;;;;;4.82;100.00;102875.69;5099638;28;19920;-82
2022/01/30 05:24:05;;;;;;;;;;;;;;;4.78;100.00;102867.44;5099823;28;20370;-83
2022/01/30 05:26:31;;;;;;;;;;;;;;;4.78;100.00;102878.78;5117414;28;20260;-81
2022/01/30 05:28:57;;;;;;;;;;;;;;;4.81;100.00;102878.16;5118242;28;19927;-83
2022/01/30 05:31:22;;;;;;;;;;;;;;;4.76;100.00;102882.06;5098614;28;20530;-81
2022/01/30 05:33:57;;;;;;;;;;;;;;;4.70;100.00;102890.22;5099100;28;19920;-81
2022/01/30 05:36:23;;;;;;;;;;;;;;;4.66;100.00;102899.47;5098929;28;20030;-81
2022/01/30 05:38:48;;;;;;;;;;;;;;;4.63;100.00;102899.19;5098901;28;19959;-81
2022/01/30 05:41:14;;;;;;;;;;;;;;;4.63;100.00;102901.81;5098452;28;20271;-81
2022/01/30 05:43:41;;;;;;;;;;;;;;;4.60;100.00;102911.97;5090015;28;19959;-81
2022/01/30 05:46:17;;;;;;;;;;;;;;;4.71;100.00;102920.78;5082471;28;19924;-82
2022/01/30 05:48:42;;;;;;;;;;;;;;;4.71;100.00;102919.84;5098766;28;19920;-81
2022/01/30 05:51:07;;;;;;;;;;;;;;;4.74;100.00;102921.06;5068306;28;20401;-81
2022/01/30 05:53:35;;;;;;;;;;;;;;;4.72;100.00;102919.09;5092495;28;20006;-82
2022/01/30 05:56:00;;;;;;;;;;;;;;;4.73;100.00;102920.94;5104895;28;19968;-81
2022/01/30 05:58:25;;;;;;;;;;;;;;;4.70;100.00;102920.63;5094348;28;20415;-81
2022/01/30 06:00:50;;;;;;;;;;;;;;;4.65;100.00;102923.72;5096576;28;19965;-81
2022/01/30 06:03:16;;;;;;;;;;;;;;;4.61;100.00;102932.03;5097429;28;19919;-82
2022/01/30 06:05:46;;;;;;;;;;;;;;;4.65;100.00;102939.38;5098959;28;19927;-83
2022/01/30 06:08:15;;;;;;;;;;;;;;;4.74;100.00;102934.13;5096616;28;19951;-82
2022/01/30 06:10:41;;;;;;;;;;;;;;;4.85;100.00;102940.34;5093988;28;19955;-82
2022/01/30 06:13:11;;;;;;;;;;;;;;;4.83;100.00;102939.25;5088833;28;19924;-82
2022/01/30 06:15:36;;;;;;;;;;;;;;;4.81;100.00;102933.88;5081010;28;19931;-82
2022/01/30 06:18:02;;;;;;;;;;;;;;;4.73;100.00;102928.75;5077908;28;19920;-82
2022/01/30 06:20:27;;;;;;;;;;;;;;;4.65;100.00;102939.38;5084825;28;19973;-82
2022/01/30 06:22:53;;;;;;;;;;;;;;;4.58;100.00;102934.34;5097777;28;19973;-82
2022/01/30 06:25:18;;;;;;;;;;;;;;;4.66;100.00;102941.22;5094474;28;19920;-82
2022/01/30 06:27:43;;;;;;;;;;;;;;;4.63;100.00;102934.78;5097269;28;19927;-82
2022/01/30 06:30:09;;;;;;;;;;;;;;;4.73;100.00;102932.28;5095370;28;20371;-82
2022/01/30 06:32:36;;;;;;;;;;;;;;;4.69;100.00;102930.13;5090922;28;19950;-83
2022/01/30 06:35:02;;;;;;;;;;;;;;;4.62;100.00;102941.72;5113294;28;20006;-82
2022/01/30 06:37:27;;;;;;;;;;;;;;;4.57;100.00;102948.19;5097343;28;20281;-81
2022/01/30 06:39:52;;;;;;;;;;;;;;;4.49;100.00;102954.41;5091528;28;19946;-82
2022/01/30 06:42:19;;;;;;;;;;;;;;;4.47;100.00;102954.25;5095682;28;19969;-82
2022/01/30 06:44:45;;;;;;;;;;;;;;;4.43;100.00;102953.81;5094983;28;19920;-82
2022/01/30 06:47:10;;;;;;;;;;;;;;;4.45;100.00;102954.88;5097895;28;19920;-82
2022/01/30 06:49:36;;;;;;;;;;;;;;;4.39;100.00;102954.28;5097445;28;19920;-82
2022/01/30 06:52:02;;;;;;;;;;;;;;;4.36;100.00;102952.31;5088801;28;20379;-81
2022/01/30 06:54:27;;;;;;;;;;;;;;;4.37;100.00;102958.47;5074885;28;20030;-82
2022/01/30 06:56:53;;;;;;;;;;;;;;;4.35;100.00;102957.38;5077670;28;19962;-81
2022/01/30 06:59:18;;;;;;;;;;;;;;;4.27;100.00;102948.81;5077342;28;19927;-81
2022/01/30 07:01:43;;;;;;;;;;;;;;;4.25;100.00;102956.50;5077574;28;19916;-81
2022/01/30 07:04:09;;;;;;;;;;;;;;;4.16;100.00;102944.28;5078269;28;19955;-81
2022/01/30 07:06:34;;;;;;;;;;;;;;;4.20;100.00;102946.41;5077763;28;19930;-81
2022/01/30 07:08:59;;;;;;;;;;;;;;;4.18;100.00;102956.69;5084364;28;19920;-81
2022/01/30 07:11:24;;;;;;;;;;;;;;;4.14;100.00;102952.84;5094657;28;19966;-81
2022/01/30 07:13:50;;;;;;;;;;;;;;;4.14;100.00;102962.38;5096526;28;19955;-81
2022/01/30 07:16:16;;;;;;;;;;;;;;;4.10;100.00;102963.78;5094513;28;19920;-82
2022/01/30 07:18:42;;;;;;;;;;;;;;;4.10;100.00;102982.03;5095178;28;19981;-82
2022/01/30 07:21:09;;;;;;;;;;;;;;;4.07;100.00;102980.81;5096046;28;19920;-81
2022/01/30 07:23:49;;;;;;;;;;;;;;;4.09;100.00;102994.94;5098133;28;19931;-82
2022/01/30 07:26:14;;;;;;;;;;;;;;;4.22;100.00;102987.50;5101948;28;20275;-82
2022/01/30 07:28:39;;;;;;;;;;;;;;;4.23;100.00;102993.66;5101889;28;19919;-82
2022/01/30 07:31:05;;;;;;;;;;;;;;;4.26;100.00;103002.69;5101303;28;19923;-82
2022/01/30 07:33:33;;;;;;;;;;;;;;;4.36;100.00;103006.16;5101174;28;20389;-82
2022/01/30 07:35:59;;;;;;;;;;;;;;;4.43;100.00;102996.47;5101243;28;19919;-82
2022/01/30 07:38:24;;;;;;;;;;;;;;;4.51;100.00;102997.19;5101161;28;20296;-82
2022/01/30 07:40:50;;;;;;;;;;;;;;;4.58;100.00;102994.38;5102068;28;19920;-82
2022/01/30 07:43:21;;;;;;;;;;;;;;;4.54;100.00;102986.13;5101231;28;19920;-83
2022/01/30 07:45:47;;;;;;;;;;;;;;;4.54;100.00;102997.50;5103789;28;19915;-82
2022/01/30 07:48:12;;;;;;;;;;;;;;;4.54;100.00;102996.53;5102293;28;19920;-82
2022/01/30 07:50:37;;;;;;;;;;;;;;;4.50;100.00;102992.75;5101908;28;19920;-82
2022/01/30 07:53:05;;;;;;;;;;;;;;;4.57;100.00;102984.72;5101062;28;19927;-82
2022/01/30 07:55:31;;;;;;;;;;;;;;;4.59;100.00;102988.41;5100286;28;19946;-81
2022/01/30 07:57:56;;;;;;;;;;;;;;;4.53;100.00;102998.25;5119083;28;19965;-81
2022/01/30 08:00:21;;;;;;;;;;;;;;;4.62;100.00;103001.72;5118434;28;20006;-81
2022/01/30 08:02:49;;;;;;;;;;;;;;;4.66;100.00;103000.31;5100591;28;19920;-82
2022/01/30 08:05:15;;;;;;;;;;;;;;;4.61;100.00;102992.06;5100485;28;19927;-81
2022/01/30 08:07:40;;;;;;;;;;;;;;;4.65;100.00;102999.41;5100485;28;19924;-81
2022/01/30 08:10:05;;;;;;;;;;;;;;;4.72;100.00;103002.59;5097472;28;20256;-82
2022/01/30 08:12:30;;;;;;;;;;;;;;;4.79;100.00;103007.63;5097122;28;20459;-82
2022/01/30 08:14:56;;;;;;;;;;;;;;;4.85;100.00;103005.59;5096445;28;19947;-81
2022/01/30 08:17:23;;;;;;;;;;;;;;;4.83;100.00;103004.50;5099134;28;19946;-82
2022/01/30 08:19:53;;;;;;;;;;;;;;;4.91;100.00;103008.78;5097843;28;19921;-81
2022/01/30 08:22:22;;;;;;;;;;;;;;;4.98;100.00;103010.25;5088625;28;20060;-82
2022/01/30 08:24:47;;;;;;;;;;;;;;;5.09;100.00;103006.03;5096902;28;19932;-82
2022/01/30 08:27:13;;;;;;;;;;;;;;;5.16;100.00;103006.75;5099953;28;19920;-81
2022/01/30 08:29:38;;;;;;;;;;;;;;;5.20;100.00;103015.78;5098395;28;19921;-82
2022/01/30 08:32:04;;;;;;;;;;;;;;;5.32;100.00;103019.53;5096471;28;19924;-81
2022/01/30 08:34:29;;;;;;;;;;;;;;;5.43;100.00;103015.28;5097254;28;20232;-81
2022/01/30 08:36:55;;;;;;;;;;;;;;;5.41;100.00;103016.84;5097831;28;19924;-81
2022/01/30 08:39:20;;;;;;;;;;;;;;;5.46;100.00;103022.50;5098351;28;19916;-83
2022/01/30 08:41:45;;;;;;;;;;;;;;;5.42;100.00;103016.06;5097798;28;19946;-81
2022/01/30 08:44:11;;;;;;;;;;;;;;;5.38;100.00;103012.25;5097325;28;20275;-80
2022/01/30 08:46:36;;;;;;;;;;;;;;;5.40;100.00;103005.47;5096572;28;19986;-81
2022/01/30 08:49:01;;;;;;;;;;;;;;;5.37;100.00;103015.63;5098328;28;19971;-82
2022/01/30 08:51:26;;;;;;;;;;;;;;;5.43;100.00;103010.06;5099088;28;19920;-79
2022/01/30 08:54:00;;;;;;;;;;;;;;;5.47;100.00;103022.63;5100434;28;19920;-81
2022/01/30 08:56:26;;;;;;;;;;;;;;;5.51;100.00;103019.50;5100656;28;19927;-81
2022/01/30 08:58:51;;;;;;;;;;;;;;;5.62;100.00;103025.72;5101618;28;19924;-81
2022/01/30 09:01:16;;;;;;;;;;;;;;;5.67;100.00;103026.13;5100852;28;20348;-78
2022/01/30 09:03:47;;;;;;;;;;;;;;;5.69;100.00;103024.59;5099571;28;19920;-80
2022/01/30 09:06:12;;;;;;;;;;;;;;;5.70;100.00;103036.84;5100731;28;19964;-81
2022/01/30 09:08:37;;;;;;;;;;;;;;;5.68;100.00;103034.09;5103620;28;19920;-81
2022/01/30 09:11:03;;;;;;;;;;;;;;;5.66;100.00;103038.28;5104360;28;20237;-81
2022/01/30 09:13:29;;;;;;;;;;;;;;;5.71;100.00;103042.22;5103109;28;19995;-81
2022/01/30 09:15:57;;;;;;;;;;;;;;;5.75;100.00;103044.34;5099820;28;19919;-81
2022/01/30 09:18:23;;;;;;;;;;;;;;;5.87;100.00;103051.47;5093308;28;19920;-81
2022/01/30 09:20:48;;;;;;;;;;;;;;;6.04;100.00;103045.16;5103622;28;20030;-80
2022/01/30 09:23:16;;;;;;;;;;;;;;;6.09;100.00;103059.56;5102115;28;19919;-81
2022/01/30 09:25:41;;;;;;;;;;;;;;;6.26;100.00;103063.69;5102690;28;19923;-81
2022/01/30 09:28:07;;;;;;;;;;;;;;;6.23;100.00;103066.97;5099201;28;19965;-81
2022/01/30 09:30:33;;;;;;;;;;;;;;;6.32;100.00;103073.78;5099277;28;19920;-81
2022/01/30 09:32:59;;;;;;;;;;;;;;;6.35;100.00;103074.06;5102070;28;19995;-81
2022/01/30 09:35:25;;;;;;;;;;;;;;;6.39;100.00;103073.56;5104230;28;19915;-80
2022/01/30 09:37:50;;;;;;;;;;;;;;;6.39;100.00;103076.19;5099790;28;19927;-80
2022/01/30 09:40:17;;;;;;;;;;;;;;;6.36;100.00;103079.44;5082540;28;19955;-81
2022/01/30 09:42:44;;;;;;;;;;;;;;;6.36;100.00;103078.53;5098910;28;19920;-81
2022/01/30 09:45:10;;;;;;;;;;;;;;;6.29;100.00;103079.66;5099416;28;19998;-81
2022/01/30 09:47:36;;;;;;;;;;;;;;;6.22;100.00;103085.16;5098573;28;19999;-81
2022/01/30 09:50:02;;;;;;;;;;;;;;;6.24;100.00;103083.56;5117064;28;19928;-82
2022/01/30 09:52:28;;;;;;;;;;;;;;;6.27;100.00;103083.84;5098219;28;19919;-82
2022/01/30 09:54:53;;;;;;;;;;;;;;;6.26;100.00;103082.00;5098539;28;20007;-82
2022/01/30 09:57:18;;;;;;;;;;;;;;;6.28;100.00;103075.22;5097909;28;20014;-83
2022/01/30 09:59:44;;;;;;;;;;;;;;;6.41;100.00;103075.50;5098000;28;19920;-81
2022/01/30 10:02:12;;;;;;;;;;;;;;;6.47;100.00;103075.16;5098167;28;19927;-81
2022/01/30 10:04:38;;;;;;;;;;;;;;;6.63;100.00;103080.03;5098914;28;19923;-81
2022/01/30 10:07:11;;;;;;;;;;;;;;;6.63;100.00;103080.03;5117777;28;20037;-81
2022/01/30 10:09:42;;;;;;;;;;;;;;;6.40;100.00;103081.56;5098047;28;20360;-81
2022/01/30 10:12:14;;;;;;;;;;;;;;;6.42;100.00;103073.84;5100478;28;19962;-82
2022/01/30 10:14:57;;;;;;;;;;;;;;;6.29;100.00;103079.66;5098572;28;19927;-82
2022/01/30 10:17:41;;;;;;;;;;;;;;;6.47;100.00;103090.84;5098210;28;19957;-82
2022/01/30 10:20:08;;;;;;;;;;;;;;;6.85;100.00;103089.75;5115461;28;19950;-82
2022/01/30 10:22:37;;;;;;;;;;;;;;;7.23;100.00;103090.44;5076591;28;20565;-81
2022/01/30 10:25:02;;;;;;;;;;;;;;;7.42;100.00;103089.41;5092248;28;19963;-81
2022/01/30 10:27:28;;;;;;;;;;;;;;;7.34;100.00;103092.28;5116849;28;20548;-81
2022/01/30 10:30:13;;;;;;;;;;;;;;;7.08;100.00;103102.22;5097959;28;19920;-81
2022/01/30 10:32:52;;;;;;;;;;;;;;;6.97;100.00;103109.16;5097992;28;19926;-81
2022/01/30 10:35:17;;;;;;;;;;;;;;;6.76;100.00;103122.22;5098448;28;19920;-83
2022/01/30 10:37:43;;;;;;;;;;;;;;;6.67;100.00;103121.41;5099231;28;19950;-82
2022/01/30 10:40:12;;;;;;;;;;;;;;;6.54;100.00;103108.00;5098679;28;19999;-82
2022/01/30 10:43:01;;;;;;;;;;;;;;;6.38;100.00;103104.03;5098110;28;19920;-81
2022/01/30 10:45:30;;;;;;;;;;;;;;;6.37;100.00;103104.84;5098448;28;19919;-81
2022/01/30 10:48:17;;;;;;;;;;;;;;;6.28;100.00;103106.63;5097294;28;20295;-81
2022/01/30 10:50:45;;;;;;;;;;;;;;;6.49;100.00;103098.84;5098181;28;19976;-81
2022/01/30 10:53:19;;;;;;;;;;;;;;;6.60;100.00;103101.66;5098093;28;19919;-81
2022/01/30 10:55:45;;;;;;;;;;;;;;;6.70;100.00;103091.97;5098568;28;20332;-82
2022/01/30 10:58:12;;;;;;;;;;;;;;;6.71;100.00;103092.13;5116249;28;19920;-81
2022/01/30 11:00:39;;;;;;;;;;;;;;;6.71;100.00;103099.03;5097197;28;20312;-81
2022/01/30 11:03:09;;;;;;;;;;;;;;;6.67;100.00;103104.81;5098518;28;19924;-82
2022/01/30 11:05:53;;;;;;;;;;;;;;;6.59;100.00;103106.75;5098810;28;19924;-82
2022/01/30 11:08:25;;;;;;;;;;;;;;;6.50;100.00;103106.84;5098832;28;19928;-82
2022/01/30 11:10:59;;;;;;;;;;;;;;;6.61;100.00;103106.06;5118291;28;21525;-81
2022/01/30 11:13:33;;;;;;;;;;;;;;;6.98;100.00;103101.44;5100521;28;19924;-81
2022/01/30 11:18:47;;;;;;;;;;;;;;;7.79;100.00;103101.25;5119195;28;19979;-81
2022/01/30 11:21:12;;;;;;;;;;;;;;;7.83;100.00;103102.41;5099258;28;19926;-81
2022/01/30 11:23:41;;;;;;;;;;;;;;;7.91;100.00;103102.28;5098835;28;19920;-82
2022/01/30 11:26:08;;;;;;;;;;;;;;;7.82;100.00;103104.13;5098964;28;19950;-81
2022/01/30 11:28:35;;;;;;;;;;;;;;;7.55;100.00;103100.09;5080434;28;20022;-81
2022/01/30 11:31:00;;;;;;;;;;;;;;;7.42;100.00;103099.88;5098677;28;19927;-81
2022/01/30 11:33:32;;;;;;;;;;;;;;;7.42;100.00;103113.88;5098298;28;19915;-81
2022/01/30 11:35:57;;;;;;;;;;;;;;;7.26;100.00;103097.66;5098471;28;20012;-81
2022/01/30 11:38:23;;;;;;;;;;;;;;;7.01;100.00;103103.41;5097941;28;19923;-81
2022/01/30 11:41:11;;;;;;;;;;;;;;;6.96;100.00;103104.69;5098768;28;19920;-81
2022/01/30 11:43:39;;;;;;;;;;;;;;;6.94;100.00;103101.03;5091582;28;19920;-81
2022/01/30 11:46:11;;;;;;;;;;;;;;;7.06;100.00;103088.09;5098230;28;19924;-81
2022/01/30 11:48:36;;;;;;;;;;;;;;;7.24;100.00;103091.34;5116717;28;19924;-81
2022/01/30 11:51:02;;;;;;;;;;;;;;;7.45;100.00;103093.19;5098611;28;20249;-82
2022/01/30 11:53:27;;;;;;;;;;;;;;;7.57;100.00;103093.31;5098611;28;19916;-81
2022/01/30 11:55:55;;;;;;;;;;;;;;;7.64;100.00;103086.88;5097062;28;19920;-81
2022/01/30 11:58:29;;;;;;;;;;;;;;;7.75;100.00;103086.03;5096707;28;20258;-82
2022/01/30 12:00:54;;;;;;;;;;;;;;;7.99;100.00;103083.63;5096862;28;19915;-81
2022/01/30 12:03:24;;;;;;;;;;;;;;;8.15;100.00;103081.47;5114239;28;20616;-81
2022/01/30 12:05:49;;;;;;;;;;;;;;;8.31;100.00;103081.00;5096963;28;19916;-82
2022/01/30 12:08:33;;;;;;;;;;;;;;;8.37;100.00;103063.09;5096765;28;19920;-81
2022/01/30 12:10:58;;;;;;;;;;;;;;;8.18;100.00;103072.94;5098579;28;19998;-82
2022/01/30 12:13:42;;;;;;;;;;;;;;;7.95;100.00;103071.97;5101307;28;20350;-81
2022/01/30 12:16:27;;;;;;;;;;;;;;;7.70;100.00;103066.41;5119850;28;19916;-81
2022/01/30 12:18:53;;;;;;;;;;;;;;;7.60;100.00;103063.78;5119272;28;20354;-81
2022/01/30 12:21:18;;;;;;;;;;;;;;;7.49;100.00;103066.44;5101061;28;19958;-81
2022/01/30 12:23:49;;;;;;;;;;;;;;;7.33;100.00;103051.16;5101486;28;19919;-81
2022/01/30 12:26:15;;;;;;;;;;;;;;;7.13;100.00;103059.94;5101404;28;20007;-81
2022/01/30 12:28:40;;;;;;;;;;;;;;;7.03;100.00;103057.28;5100885;28;20351;-81
2022/01/30 12:31:24;;;;;;;;;;;;;;;6.80;100.00;103047.47;5100714;28;19980;-81
2022/01/30 12:34:02;;;;;;;;;;;;;;;6.68;100.00;103047.34;5118748;28;19919;-81
2022/01/30 12:36:27;;;;;;;;;;;;;;;6.67;100.00;103048.09;5100691;28;19955;-82
2022/01/30 12:38:55;;;;;;;;;;;;;;;6.83;100.00;103039.88;5100604;28;20397;-82
2022/01/30 12:41:21;;;;;;;;;;;;;;;6.96;100.00;103036.59;5100639;28;19920;-82
2022/01/30 12:43:54;;;;;;;;;;;;;;;7.09;100.00;103026.38;5100539;28;20030;-82
2022/01/30 12:46:21;;;;;;;;;;;;;;;7.30;100.00;103029.91;5101328;28;19920;-83
2022/01/30 12:48:59;;;;;;;;;;;;;;;7.24;100.00;103015.34;5119019;28;19920;-82
2022/01/30 12:51:26;;;;;;;;;;;;;;;7.32;100.00;103001.22;5100920;28;19919;-81
2022/01/30 12:53:56;;;;;;;;;;;;;;;7.26;100.00;102995.47;5119060;28;19923;-81
2022/01/30 12:56:23;;;;;;;;;;;;;;;7.14;100.00;102996.25;5100675;28;20602;-81
2022/01/30 12:58:48;;;;;;;;;;;;;;;7.05;100.00;102990.22;5100621;28;20249;-81
2022/01/30 13:01:14;;;;;;;;;;;;;;;6.95;100.00;102978.06;5101534;28;19927;-80
2022/01/30 13:03:41;;;;;;;;;;;;;;;7.05;100.00;102987.59;5120184;28;19920;-80
2022/01/30 13:06:07;;;;;;;;;;;;;;;6.82;100.00;102983.97;5100925;28;19920;-80
2022/01/30 13:09:04;;;;;;;;;;;;;;;6.71;100.00;102981.19;5100184;28;20677;-80
2022/01/30 13:11:30;;;;;;;;;;;;;;;6.93;100.00;102973.47;5084049;28;20109;-81
2022/01/30 13:14:05;;;;;;;;;;;;;;;6.98;100.00;102967.84;5100915;28;19948;-81
2022/01/30 13:16:32;;;;;;;;;;;;;;;7.18;100.00;102966.00;5101814;28;19946;-81
2022/01/30 13:18:58;;;;;;;;;;;;;;;7.26;100.00;102958.78;5118657;28;19924;-81
2022/01/30 13:21:29;;;;;;;;;;;;;;;7.36;100.00;102945.63;5099164;28;20299;-81
2022/01/30 13:23:55;;;;;;;;;;;;;;;7.35;100.00;102949.06;5099220;28;19919;-81
2022/01/30 13:26:46;;;;;;;;;;;;;;;7.25;100.00;102938.59;5098761;28;19965;-81
2022/01/30 13:29:19;;;;;;;;;;;;;;;7.19;100.00;102934.69;5096582;28;19977;-81
2022/01/30 13:31:56;;;;;;;;;;;;;;;7.25;100.00;102935.97;5099838;28;19920;-82
2022/01/30 13:34:29;;;;;;;;;;;;;;;7.23;100.00;102927.97;5099137;28;19995;-81
2022/01/30 13:37:02;;;;;;;;;;;;;;;7.26;100.00;102932.56;5098969;28;20006;-81
2022/01/30 13:39:34;;;;;;;;;;;;;;;7.35;100.00;102934.22;5099438;28;20006;-81
2022/01/30 13:47:52;;;;;;;;;;;;;;;7.10;100.00;102930.34;5117465;28;19950;-81
2022/01/30 13:50:19;;;;;;;;;;;;;;;7.10;100.00;102926.06;5099059;28;20002;-82